Élőkép

Információk

Albatrosz Repülő Egyesület
8000 Székesfehérvár,
Radványi utca 6.

Adószám:
19092908-2-07

Bankszámla szám:
Budapest Bank
10102952-01361819-00000001

Telefon: +36 30 9598-897

Telephey: Börgönd repülőtér

Börgöndi repülõtér

LHBP METAR/TAF

[source: ADDS]
METAR
TAF LHBP 292300Z 3000/3024 VRB03KT CAVOK TEMPO 3000/3008 21007KT -RA SCT035 BKN050 BECMG 3008/3011 24012KT SCT025 BKN040 TEMPO 3011/3015 27020G32KT 5000 SHRA SCT015TCU BKN025 BECMG 3015/3017 30014KT CAVOK BECMG 3017/3019 29008KT TAF
TAF LHBP 292300Z 3000/3024 VRB03KT CAVOK TEMPO 3000/3008 21007KT -RA SCT035 BKN050 BECMG 3008/3011 24012KT SCT025 BKN040 TEMPO 3011/3015 27020G32KT 5000 SHRA SCT015TCU BKN025 BECMG 3015/3017 30014KT CAVOK BECMG 3017/3019 29008KT =
SR / SS: 04:30 / 17:14 UTC (Börgönd 2015-03-30)
Hungarian Chinese (Simplified) Croatian Czech English Finnish French German Hebrew Italian Japanese Polish Portuguese Romanian Russian Serbian Slovak Slovenian Spanish

Belépés tagoknak